sensor_id;sensor_type;location;lat;lon;timestamp;P1;durP1;ratioP1;P2;durP2;ratioP2
11431;SDS011;5772;50.940;6.782;2023-03-21T00:01:35;22.37;;;21.27;;
11431;SDS011;5772;50.940;6.782;2023-03-21T00:04:02;21.43;;;20.43;;
11431;SDS011;5772;50.940;6.782;2023-03-21T00:06:27;22.00;;;20.87;;
11431;SDS011;5772;50.940;6.782;2023-03-21T00:08:52;22.30;;;20.93;;
11431;SDS011;5772;50.940;6.782;2023-03-21T00:11:18;24.27;;;22.90;;
11431;SDS011;5772;50.940;6.782;2023-03-21T00:13:43;24.20;;;22.80;;
11431;SDS011;5772;50.940;6.782;2023-03-21T00:16:09;23.60;;;22.40;;
11431;SDS011;5772;50.940;6.782;2023-03-21T00:18:36;21.13;;;20.03;;
11431;SDS011;5772;50.940;6.782;2023-03-21T00:21:03;22.50;;;21.20;;
11431;SDS011;5772;50.940;6.782;2023-03-21T00:23:30;22.80;;;21.30;;
11431;SDS011;5772;50.940;6.782;2023-03-21T00:25:56;22.57;;;21.37;;
11431;SDS011;5772;50.940;6.782;2023-03-21T00:28:22;22.13;;;21.03;;
11431;SDS011;5772;50.940;6.782;2023-03-21T00:30:48;22.83;;;21.67;;
11431;SDS011;5772;50.940;6.782;2023-03-21T00:33:14;22.93;;;21.63;;
11431;SDS011;5772;50.940;6.782;2023-03-21T00:35:39;22.17;;;20.93;;
11431;SDS011;5772;50.940;6.782;2023-03-21T00:38:06;23.30;;;22.13;;
11431;SDS011;5772;50.940;6.782;2023-03-21T00:40:31;22.07;;;20.67;;
11431;SDS011;5772;50.940;6.782;2023-03-21T00:42:57;22.90;;;21.70;;
11431;SDS011;5772;50.940;6.782;2023-03-21T00:45:22;21.67;;;20.47;;
11431;SDS011;5772;50.940;6.782;2023-03-21T00:47:48;22.80;;;21.60;;
11431;SDS011;5772;50.940;6.782;2023-03-21T00:50:33;23.07;;;21.50;;
11431;SDS011;5772;50.940;6.782;2023-03-21T00:52:58;21.10;;;19.90;;
11431;SDS011;5772;50.940;6.782;2023-03-21T00:55:25;21.77;;;20.60;;
11431;SDS011;5772;50.940;6.782;2023-03-21T00:57:50;22.57;;;21.43;;
11431;SDS011;5772;50.940;6.782;2023-03-21T01:00:16;25.30;;;23.47;;
11431;SDS011;5772;50.940;6.782;2023-03-21T01:02:43;24.07;;;22.47;;
11431;SDS011;5772;50.940;6.782;2023-03-21T01:05:09;24.87;;;23.37;;
11431;SDS011;5772;50.940;6.782;2023-03-21T01:07:35;23.87;;;22.73;;
11431;SDS011;5772;50.940;6.782;2023-03-21T01:10:01;24.80;;;22.97;;
11431;SDS011;5772;50.940;6.782;2023-03-21T01:12:27;24.73;;;22.97;;
11431;SDS011;5772;50.940;6.782;2023-03-21T01:14:53;24.80;;;23.30;;
11431;SDS011;5772;50.940;6.782;2023-03-21T01:17:19;24.13;;;22.93;;
11431;SDS011;5772;50.940;6.782;2023-03-21T01:19:44;26.03;;;24.23;;
11431;SDS011;5772;50.940;6.782;2023-03-21T01:22:09;24.70;;;23.43;;
11431;SDS011;5772;50.940;6.782;2023-03-21T01:24:35;26.43;;;24.73;;
11431;SDS011;5772;50.940;6.782;2023-03-21T01:27:01;25.47;;;23.90;;
11431;SDS011;5772;50.940;6.782;2023-03-21T01:29:28;26.30;;;24.53;;
11431;SDS011;5772;50.940;6.782;2023-03-21T01:31:53;25.00;;;23.60;;
11431;SDS011;5772;50.940;6.782;2023-03-21T01:34:18;24.77;;;23.33;;
11431;SDS011;5772;50.940;6.782;2023-03-21T01:36:44;25.10;;;23.80;;
11431;SDS011;5772;50.940;6.782;2023-03-21T01:39:09;24.80;;;23.33;;
11431;SDS011;5772;50.940;6.782;2023-03-21T01:41:35;25.87;;;24.50;;
11431;SDS011;5772;50.940;6.782;2023-03-21T01:44:02;27.00;;;25.40;;
11431;SDS011;5772;50.940;6.782;2023-03-21T01:46:34;26.53;;;25.13;;
11431;SDS011;5772;50.940;6.782;2023-03-21T01:49:03;26.53;;;24.93;;
11431;SDS011;5772;50.940;6.782;2023-03-21T01:51:33;25.63;;;24.27;;
11431;SDS011;5772;50.940;6.782;2023-03-21T01:54:00;26.70;;;24.97;;
11431;SDS011;5772;50.940;6.782;2023-03-21T01:56:27;26.03;;;24.67;;
11431;SDS011;5772;50.940;6.782;2023-03-21T01:58:55;24.70;;;23.47;;
11431;SDS011;5772;50.940;6.782;2023-03-21T02:01:24;26.47;;;24.57;;
11431;SDS011;5772;50.940;6.782;2023-03-21T02:03:51;25.63;;;23.83;;
11431;SDS011;5772;50.940;6.782;2023-03-21T02:06:19;25.53;;;23.80;;
11431;SDS011;5772;50.940;6.782;2023-03-21T02:08:48;25.00;;;23.50;;
11431;SDS011;5772;50.940;6.782;2023-03-21T02:11:14;24.70;;;22.73;;
11431;SDS011;5772;50.940;6.782;2023-03-21T02:13:39;25.67;;;24.17;;
11431;SDS011;5772;50.940;6.782;2023-03-21T02:16:07;26.00;;;24.13;;
11431;SDS011;5772;50.940;6.782;2023-03-21T02:18:37;25.57;;;23.90;;
11431;SDS011;5772;50.940;6.782;2023-03-21T02:24:14;24.80;;;23.40;;
11431;SDS011;5772;50.940;6.782;2023-03-21T02:27:01;24.83;;;23.37;;
11431;SDS011;5772;50.940;6.782;2023-03-21T02:32:24;24.37;;;22.97;;
11431;SDS011;5772;50.940;6.782;2023-03-21T02:35:07;24.00;;;22.70;;
11431;SDS011;5772;50.940;6.782;2023-03-21T02:37:44;23.97;;;22.70;;
11431;SDS011;5772;50.940;6.782;2023-03-21T02:40:13;25.37;;;23.43;;
11431;SDS011;5772;50.940;6.782;2023-03-21T02:42:46;24.37;;;22.77;;
11431;SDS011;5772;50.940;6.782;2023-03-21T02:45:18;25.80;;;24.17;;
11431;SDS011;5772;50.940;6.782;2023-03-21T02:47:45;24.97;;;23.43;;
11431;SDS011;5772;50.940;6.782;2023-03-21T02:50:13;23.80;;;22.30;;
11431;SDS011;5772;50.940;6.782;2023-03-21T02:52:41;23.77;;;22.20;;
11431;SDS011;5772;50.940;6.782;2023-03-21T02:55:11;23.27;;;21.90;;
11431;SDS011;5772;50.940;6.782;2023-03-21T02:57:37;23.47;;;22.07;;
11431;SDS011;5772;50.940;6.782;2023-03-21T03:00:03;22.63;;;21.37;;
11431;SDS011;5772;50.940;6.782;2023-03-21T03:02:29;26.03;;;24.30;;
11431;SDS011;5772;50.940;6.782;2023-03-21T03:04:54;23.67;;;22.37;;
11431;SDS011;5772;50.940;6.782;2023-03-21T03:07:23;24.13;;;22.60;;
11431;SDS011;5772;50.940;6.782;2023-03-21T03:10:01;23.93;;;22.53;;
11431;SDS011;5772;50.940;6.782;2023-03-21T03:12:33;25.87;;;24.40;;
11431;SDS011;5772;50.940;6.782;2023-03-21T03:15:08;24.40;;;22.97;;
11431;SDS011;5772;50.940;6.782;2023-03-21T03:17:42;25.10;;;23.53;;
11431;SDS011;5772;50.940;6.782;2023-03-21T03:20:27;26.30;;;24.37;;
11431;SDS011;5772;50.940;6.782;2023-03-21T03:22:59;25.33;;;23.73;;
11431;SDS011;5772;50.940;6.782;2023-03-21T03:25:35;28.00;;;26.40;;
11431;SDS011;5772;50.940;6.782;2023-03-21T03:28:01;26.37;;;24.83;;
11431;SDS011;5772;50.940;6.782;2023-03-21T03:30:28;26.40;;;24.93;;
11431;SDS011;5772;50.940;6.782;2023-03-21T03:32:55;26.43;;;25.03;;
11431;SDS011;5772;50.940;6.782;2023-03-21T03:35:21;28.37;;;26.73;;
11431;SDS011;5772;50.940;6.782;2023-03-21T03:37:48;25.63;;;24.33;;
11431;SDS011;5772;50.940;6.782;2023-03-21T03:40:17;27.47;;;26.07;;
11431;SDS011;5772;50.940;6.782;2023-03-21T03:42:46;27.90;;;26.20;;
11431;SDS011;5772;50.940;6.782;2023-03-21T03:45:14;29.57;;;27.97;;
11431;SDS011;5772;50.940;6.782;2023-03-21T03:47:40;28.07;;;26.30;;
11431;SDS011;5772;50.940;6.782;2023-03-21T03:50:08;29.03;;;27.13;;
11431;SDS011;5772;50.940;6.782;2023-03-21T03:52:36;32.27;;;29.83;;
11431;SDS011;5772;50.940;6.782;2023-03-21T03:55:04;29.00;;;27.30;;
11431;SDS011;5772;50.940;6.782;2023-03-21T03:57:30;29.63;;;27.80;;
11431;SDS011;5772;50.940;6.782;2023-03-21T03:59:56;28.17;;;26.40;;
11431;SDS011;5772;50.940;6.782;2023-03-21T04:02:22;27.87;;;26.27;;
11431;SDS011;5772;50.940;6.782;2023-03-21T04:04:47;28.13;;;26.63;;
11431;SDS011;5772;50.940;6.782;2023-03-21T04:07:13;29.33;;;27.53;;
11431;SDS011;5772;50.940;6.782;2023-03-21T04:09:38;28.83;;;27.30;;
11431;SDS011;5772;50.940;6.782;2023-03-21T04:12:03;28.57;;;27.07;;
11431;SDS011;5772;50.940;6.782;2023-03-21T04:14:29;27.90;;;26.50;;
11431;SDS011;5772;50.940;6.782;2023-03-21T04:16:56;30.30;;;28.63;;
11431;SDS011;5772;50.940;6.782;2023-03-21T04:19:21;30.73;;;28.70;;
11431;SDS011;5772;50.940;6.782;2023-03-21T04:21:46;30.83;;;29.13;;
11431;SDS011;5772;50.940;6.782;2023-03-21T04:24:12;30.30;;;28.23;;
11431;SDS011;5772;50.940;6.782;2023-03-21T04:26:38;29.87;;;28.30;;
11431;SDS011;5772;50.940;6.782;2023-03-21T04:29:04;30.67;;;29.07;;
11431;SDS011;5772;50.940;6.782;2023-03-21T04:31:29;31.47;;;29.33;;
11431;SDS011;5772;50.940;6.782;2023-03-21T04:33:57;30.70;;;28.53;;
11431;SDS011;5772;50.940;6.782;2023-03-21T04:36:22;28.80;;;27.30;;
11431;SDS011;5772;50.940;6.782;2023-03-21T04:38:48;30.07;;;28.20;;
11431;SDS011;5772;50.940;6.782;2023-03-21T04:41:13;29.50;;;27.13;;
11431;SDS011;5772;50.940;6.782;2023-03-21T04:43:38;29.40;;;27.33;;
11431;SDS011;5772;50.940;6.782;2023-03-21T04:46:04;27.37;;;25.67;;
11431;SDS011;5772;50.940;6.782;2023-03-21T04:48:29;29.30;;;27.77;;
11431;SDS011;5772;50.940;6.782;2023-03-21T04:50:56;28.93;;;27.47;;
11431;SDS011;5772;50.940;6.782;2023-03-21T04:53:22;27.07;;;25.57;;
11431;SDS011;5772;50.940;6.782;2023-03-21T04:55:47;28.43;;;26.73;;
11431;SDS011;5772;50.940;6.782;2023-03-21T04:58:12;26.33;;;24.97;;
11431;SDS011;5772;50.940;6.782;2023-03-21T05:00:38;27.37;;;25.87;;
11431;SDS011;5772;50.940;6.782;2023-03-21T05:03:03;26.10;;;24.63;;
11431;SDS011;5772;50.940;6.782;2023-03-21T05:05:29;30.13;;;27.67;;
11431;SDS011;5772;50.940;6.782;2023-03-21T05:07:56;27.83;;;25.73;;
11431;SDS011;5772;50.940;6.782;2023-03-21T05:10:21;27.93;;;26.20;;
11431;SDS011;5772;50.940;6.782;2023-03-21T05:12:47;27.83;;;26.37;;
11431;SDS011;5772;50.940;6.782;2023-03-21T05:15:12;26.40;;;24.70;;
11431;SDS011;5772;50.940;6.782;2023-03-21T05:17:37;27.13;;;25.63;;
11431;SDS011;5772;50.940;6.782;2023-03-21T05:20:03;24.93;;;23.67;;
11431;SDS011;5772;50.940;6.782;2023-03-21T05:22:29;27.47;;;25.70;;
11431;SDS011;5772;50.940;6.782;2023-03-21T05:24:56;25.80;;;24.40;;
11431;SDS011;5772;50.940;6.782;2023-03-21T05:27:21;27.57;;;26.07;;
11431;SDS011;5772;50.940;6.782;2023-03-21T05:29:47;26.03;;;24.63;;
11431;SDS011;5772;50.940;6.782;2023-03-21T05:32:12;26.60;;;25.10;;
11431;SDS011;5772;50.940;6.782;2023-03-21T05:34:38;27.13;;;25.73;;
11431;SDS011;5772;50.940;6.782;2023-03-21T05:37:03;26.77;;;25.13;;
11431;SDS011;5772;50.940;6.782;2023-03-21T05:39:29;27.07;;;25.40;;
11431;SDS011;5772;50.940;6.782;2023-03-21T05:41:55;25.83;;;24.30;;
11431;SDS011;5772;50.940;6.782;2023-03-21T05:44:21;27.20;;;25.60;;
11431;SDS011;5772;50.940;6.782;2023-03-21T05:46:46;27.20;;;25.50;;
11431;SDS011;5772;50.940;6.782;2023-03-21T05:49:11;28.00;;;26.57;;
11431;SDS011;5772;50.940;6.782;2023-03-21T05:51:37;28.00;;;26.60;;
11431;SDS011;5772;50.940;6.782;2023-03-21T05:54:02;28.53;;;27.00;;
11431;SDS011;5772;50.940;6.782;2023-03-21T05:56:28;28.77;;;27.37;;
11431;SDS011;5772;50.940;6.782;2023-03-21T05:58:54;31.03;;;28.97;;
11431;SDS011;5772;50.940;6.782;2023-03-21T06:01:20;30.57;;;28.73;;
11431;SDS011;5772;50.940;6.782;2023-03-21T06:03:45;31.27;;;29.23;;
11431;SDS011;5772;50.940;6.782;2023-03-21T06:06:10;31.20;;;29.70;;
11431;SDS011;5772;50.940;6.782;2023-03-21T06:08:36;30.53;;;28.70;;
11431;SDS011;5772;50.940;6.782;2023-03-21T06:11:01;32.40;;;30.50;;
11431;SDS011;5772;50.940;6.782;2023-03-21T06:13:27;31.60;;;29.90;;
11431;SDS011;5772;50.940;6.782;2023-03-21T06:15:53;32.07;;;30.27;;
11431;SDS011;5772;50.940;6.782;2023-03-21T06:18:19;32.87;;;31.03;;
11431;SDS011;5772;50.940;6.782;2023-03-21T06:20:44;32.07;;;30.23;;
11431;SDS011;5772;50.940;6.782;2023-03-21T06:23:09;30.37;;;28.93;;
11431;SDS011;5772;50.940;6.782;2023-03-21T06:25:35;31.90;;;30.00;;
11431;SDS011;5772;50.940;6.782;2023-03-21T06:28:00;30.57;;;29.07;;
11431;SDS011;5772;50.940;6.782;2023-03-21T06:30:26;31.03;;;29.43;;
11431;SDS011;5772;50.940;6.782;2023-03-21T06:32:52;31.97;;;30.13;;
11431;SDS011;5772;50.940;6.782;2023-03-21T06:35:18;31.13;;;29.50;;
11431;SDS011;5772;50.940;6.782;2023-03-21T06:37:43;32.63;;;30.83;;
11431;SDS011;5772;50.940;6.782;2023-03-21T06:40:09;31.47;;;29.60;;
11431;SDS011;5772;50.940;6.782;2023-03-21T06:42:35;33.33;;;31.63;;
11431;SDS011;5772;50.940;6.782;2023-03-21T06:45:01;34.20;;;32.40;;
11431;SDS011;5772;50.940;6.782;2023-03-21T06:47:26;36.03;;;34.03;;
11431;SDS011;5772;50.940;6.782;2023-03-21T06:49:53;32.60;;;30.87;;
11431;SDS011;5772;50.940;6.782;2023-03-21T06:52:18;35.47;;;33.13;;
11431;SDS011;5772;50.940;6.782;2023-03-21T06:54:43;35.27;;;33.63;;
11431;SDS011;5772;50.940;6.782;2023-03-21T06:57:09;38.27;;;36.20;;
11431;SDS011;5772;50.940;6.782;2023-03-21T06:59:35;37.13;;;34.87;;
11431;SDS011;5772;50.940;6.782;2023-03-21T07:02:00;32.50;;;30.70;;
11431;SDS011;5772;50.940;6.782;2023-03-21T07:04:25;33.93;;;32.10;;
11431;SDS011;5772;50.940;6.782;2023-03-21T07:06:52;30.37;;;28.50;;
11431;SDS011;5772;50.940;6.782;2023-03-21T07:09:17;29.80;;;28.00;;
11431;SDS011;5772;50.940;6.782;2023-03-21T07:11:43;30.93;;;29.00;;
11431;SDS011;5772;50.940;6.782;2023-03-21T07:14:08;32.83;;;30.90;;
11431;SDS011;5772;50.940;6.782;2023-03-21T07:16:34;35.33;;;32.93;;
11431;SDS011;5772;50.940;6.782;2023-03-21T07:18:59;38.93;;;36.47;;
11431;SDS011;5772;50.940;6.782;2023-03-21T07:21:24;36.17;;;34.17;;
11431;SDS011;5772;50.940;6.782;2023-03-21T07:23:51;34.67;;;32.77;;
11431;SDS011;5772;50.940;6.782;2023-03-21T07:26:16;36.07;;;33.97;;
11431;SDS011;5772;50.940;6.782;2023-03-21T07:28:42;39.40;;;36.87;;
11431;SDS011;5772;50.940;6.782;2023-03-21T07:31:11;39.93;;;37.83;;
11431;SDS011;5772;50.940;6.782;2023-03-21T07:33:38;41.83;;;39.67;;
11431;SDS011;5772;50.940;6.782;2023-03-21T07:36:07;39.70;;;36.63;;
11431;SDS011;5772;50.940;6.782;2023-03-21T07:38:33;39.97;;;37.27;;
11431;SDS011;5772;50.940;6.782;2023-03-21T07:41:00;35.13;;;32.93;;
11431;SDS011;5772;50.940;6.782;2023-03-21T07:43:25;41.00;;;37.87;;
11431;SDS011;5772;50.940;6.782;2023-03-21T07:45:53;34.93;;;33.03;;
11431;SDS011;5772;50.940;6.782;2023-03-21T07:48:20;36.87;;;34.83;;
11431;SDS011;5772;50.940;6.782;2023-03-21T07:50:47;35.57;;;33.77;;
11431;SDS011;5772;50.940;6.782;2023-03-21T07:53:13;34.73;;;32.87;;
11431;SDS011;5772;50.940;6.782;2023-03-21T07:55:38;35.60;;;33.73;;
11431;SDS011;5772;50.940;6.782;2023-03-21T07:58:05;34.10;;;32.07;;
11431;SDS011;5772;50.940;6.782;2023-03-21T08:00:30;34.27;;;32.27;;
11431;SDS011;5772;50.940;6.782;2023-03-21T08:02:56;37.20;;;34.77;;
11431;SDS011;5772;50.940;6.782;2023-03-21T08:05:22;36.80;;;34.70;;
11431;SDS011;5772;50.940;6.782;2023-03-21T08:07:48;36.73;;;34.77;;
11431;SDS011;5772;50.940;6.782;2023-03-21T08:10:14;36.63;;;34.13;;
11431;SDS011;5772;50.940;6.782;2023-03-21T08:12:40;36.90;;;35.00;;
11431;SDS011;5772;50.940;6.782;2023-03-21T08:15:07;41.83;;;39.63;;
11431;SDS011;5772;50.940;6.782;2023-03-21T08:17:33;43.13;;;40.83;;
11431;SDS011;5772;50.940;6.782;2023-03-21T08:19:58;43.60;;;41.17;;
11431;SDS011;5772;50.940;6.782;2023-03-21T08:22:23;42.10;;;39.67;;
11431;SDS011;5772;50.940;6.782;2023-03-21T08:24:49;46.67;;;43.87;;
11431;SDS011;5772;50.940;6.782;2023-03-21T08:27:14;48.67;;;45.87;;
11431;SDS011;5772;50.940;6.782;2023-03-21T08:29:40;48.53;;;45.73;;
11431;SDS011;5772;50.940;6.782;2023-03-21T08:32:07;51.10;;;48.27;;
11431;SDS011;5772;50.940;6.782;2023-03-21T08:34:32;53.00;;;49.97;;
11431;SDS011;5772;50.940;6.782;2023-03-21T08:36:59;52.20;;;49.40;;
11431;SDS011;5772;50.940;6.782;2023-03-21T08:39:24;53.73;;;50.40;;
11431;SDS011;5772;50.940;6.782;2023-03-21T08:41:49;56.53;;;53.37;;
11431;SDS011;5772;50.940;6.782;2023-03-21T08:44:15;57.57;;;54.77;;
11431;SDS011;5772;50.940;6.782;2023-03-21T08:46:40;55.37;;;52.83;;
11431;SDS011;5772;50.940;6.782;2023-03-21T08:49:07;56.10;;;52.83;;
11431;SDS011;5772;50.940;6.782;2023-03-21T08:51:33;57.03;;;54.20;;
11431;SDS011;5772;50.940;6.782;2023-03-21T08:53:58;56.40;;;53.67;;
11431;SDS011;5772;50.940;6.782;2023-03-21T08:56:23;58.20;;;55.20;;
11431;SDS011;5772;50.940;6.782;2023-03-21T08:58:49;56.90;;;53.47;;
11431;SDS011;5772;50.940;6.782;2023-03-21T09:01:14;55.37;;;52.57;;
11431;SDS011;5772;50.940;6.782;2023-03-21T09:03:40;52.63;;;50.10;;
11431;SDS011;5772;50.940;6.782;2023-03-21T09:06:07;55.27;;;52.10;;
11431;SDS011;5772;50.940;6.782;2023-03-21T09:08:33;57.20;;;54.33;;
11431;SDS011;5772;50.940;6.782;2023-03-21T09:10:58;58.67;;;55.67;;
11431;SDS011;5772;50.940;6.782;2023-03-21T09:13:24;54.67;;;52.07;;
11431;SDS011;5772;50.940;6.782;2023-03-21T09:15:49;58.03;;;54.73;;
11431;SDS011;5772;50.940;6.782;2023-03-21T09:18:14;50.93;;;48.33;;
11431;SDS011;5772;50.940;6.782;2023-03-21T09:20:40;51.60;;;48.93;;
11431;SDS011;5772;50.940;6.782;2023-03-21T09:23:07;50.20;;;47.40;;
11431;SDS011;5772;50.940;6.782;2023-03-21T09:25:33;48.90;;;45.97;;
11431;SDS011;5772;50.940;6.782;2023-03-21T09:27:58;44.07;;;41.43;;
11431;SDS011;5772;50.940;6.782;2023-03-21T09:30:24;38.57;;;36.37;;
11431;SDS011;5772;50.940;6.782;2023-03-21T09:32:49;38.50;;;36.37;;
11431;SDS011;5772;50.940;6.782;2023-03-21T09:35:15;37.87;;;35.60;;
11431;SDS011;5772;50.940;6.782;2023-03-21T09:37:41;39.50;;;36.87;;
11431;SDS011;5772;50.940;6.782;2023-03-21T09:40:13;39.73;;;37.33;;
11431;SDS011;5772;50.940;6.782;2023-03-21T09:42:41;41.60;;;39.30;;
11431;SDS011;5772;50.940;6.782;2023-03-21T09:45:15;40.20;;;37.47;;
11431;SDS011;5772;50.940;6.782;2023-03-21T09:47:43;41.60;;;39.20;;
11431;SDS011;5772;50.940;6.782;2023-03-21T09:50:11;43.67;;;41.10;;
11431;SDS011;5772;50.940;6.782;2023-03-21T09:52:40;44.70;;;42.00;;
11431;SDS011;5772;50.940;6.782;2023-03-21T09:55:08;44.50;;;42.03;;
11431;SDS011;5772;50.940;6.782;2023-03-21T09:57:40;45.03;;;42.37;;
11431;SDS011;5772;50.940;6.782;2023-03-21T10:00:09;42.77;;;39.83;;
11431;SDS011;5772;50.940;6.782;2023-03-21T10:02:38;35.57;;;33.60;;
11431;SDS011;5772;50.940;6.782;2023-03-21T10:05:09;34.60;;;32.90;;
11431;SDS011;5772;50.940;6.782;2023-03-21T10:07:37;34.83;;;32.93;;
11431;SDS011;5772;50.940;6.782;2023-03-21T10:10:04;33.00;;;30.73;;
11431;SDS011;5772;50.940;6.782;2023-03-21T10:12:32;33.97;;;32.13;;
11431;SDS011;5772;50.940;6.782;2023-03-21T10:14:57;37.33;;;35.43;;
11431;SDS011;5772;50.940;6.782;2023-03-21T10:17:26;33.70;;;31.80;;
11431;SDS011;5772;50.940;6.782;2023-03-21T10:19:55;32.90;;;30.87;;
11431;SDS011;5772;50.940;6.782;2023-03-21T10:22:25;35.00;;;32.87;;
11431;SDS011;5772;50.940;6.782;2023-03-21T10:24:51;33.30;;;31.60;;
11431;SDS011;5772;50.940;6.782;2023-03-21T10:27:16;36.80;;;34.43;;
11431;SDS011;5772;50.940;6.782;2023-03-21T10:29:43;39.50;;;36.83;;
11431;SDS011;5772;50.940;6.782;2023-03-21T10:32:10;40.37;;;37.97;;
11431;SDS011;5772;50.940;6.782;2023-03-21T10:34:39;43.30;;;40.80;;
11431;SDS011;5772;50.940;6.782;2023-03-21T10:37:06;41.10;;;38.47;;
11431;SDS011;5772;50.940;6.782;2023-03-21T10:39:32;40.07;;;37.67;;
11431;SDS011;5772;50.940;6.782;2023-03-21T10:41:58;42.20;;;39.63;;
11431;SDS011;5772;50.940;6.782;2023-03-21T10:44:27;39.97;;;37.77;;
11431;SDS011;5772;50.940;6.782;2023-03-21T10:46:55;36.47;;;34.30;;
11431;SDS011;5772;50.940;6.782;2023-03-21T10:49:21;34.47;;;32.73;;
11431;SDS011;5772;50.940;6.782;2023-03-21T10:51:48;32.63;;;30.97;;
11431;SDS011;5772;50.940;6.782;2023-03-21T10:54:17;32.30;;;30.60;;
11431;SDS011;5772;50.940;6.782;2023-03-21T10:56:44;38.23;;;36.17;;
11431;SDS011;5772;50.940;6.782;2023-03-21T10:59:17;37.63;;;35.77;;
11431;SDS011;5772;50.940;6.782;2023-03-21T11:01:45;34.23;;;32.07;;
11431;SDS011;5772;50.940;6.782;2023-03-21T11:04:15;32.23;;;30.33;;
11431;SDS011;5772;50.940;6.782;2023-03-21T11:06:41;34.90;;;33.00;;
11431;SDS011;5772;50.940;6.782;2023-03-21T11:09:07;35.23;;;33.10;;
11431;SDS011;5772;50.940;6.782;2023-03-21T11:11:37;35.73;;;33.90;;
11431;SDS011;5772;50.940;6.782;2023-03-21T11:14:04;40.00;;;37.63;;
11431;SDS011;5772;50.940;6.782;2023-03-21T11:16:31;40.17;;;37.77;;
11431;SDS011;5772;50.940;6.782;2023-03-21T11:19:01;36.93;;;34.80;;
11431;SDS011;5772;50.940;6.782;2023-03-21T11:21:28;34.20;;;32.30;;
11431;SDS011;5772;50.940;6.782;2023-03-21T11:23:59;31.97;;;30.13;;
11431;SDS011;5772;50.940;6.782;2023-03-21T11:26:27;32.57;;;30.73;;
11431;SDS011;5772;50.940;6.782;2023-03-21T11:28:55;33.40;;;31.80;;
11431;SDS011;5772;50.940;6.782;2023-03-21T11:31:20;36.83;;;34.83;;
11431;SDS011;5772;50.940;6.782;2023-03-21T11:33:47;36.23;;;33.97;;
11431;SDS011;5772;50.940;6.782;2023-03-21T11:36:26;33.27;;;31.43;;
11431;SDS011;5772;50.940;6.782;2023-03-21T11:38:59;33.20;;;31.30;;
11431;SDS011;5772;50.940;6.782;2023-03-21T11:41:28;33.67;;;31.73;;
11431;SDS011;5772;50.940;6.782;2023-03-21T11:43:54;35.27;;;33.37;;
11431;SDS011;5772;50.940;6.782;2023-03-21T11:46:21;34.97;;;32.83;;
11431;SDS011;5772;50.940;6.782;2023-03-21T11:48:47;34.43;;;32.60;;
11431;SDS011;5772;50.940;6.782;2023-03-21T11:51:16;39.00;;;36.63;;
11431;SDS011;5772;50.940;6.782;2023-03-21T11:53:48;42.67;;;40.63;;
11431;SDS011;5772;50.940;6.782;2023-03-21T11:56:21;46.03;;;43.53;;
11431;SDS011;5772;50.940;6.782;2023-03-21T11:58:53;45.07;;;42.40;;
11431;SDS011;5772;50.940;6.782;2023-03-21T12:01:47;44.57;;;42.07;;
11431;SDS011;5772;50.940;6.782;2023-03-21T12:04:29;46.50;;;43.50;;
11431;SDS011;5772;50.940;6.782;2023-03-21T12:07:04;45.77;;;43.47;;
11431;SDS011;5772;50.940;6.782;2023-03-21T12:09:36;42.43;;;39.83;;
11431;SDS011;5772;50.940;6.782;2023-03-21T12:12:05;38.93;;;36.93;;
11431;SDS011;5772;50.940;6.782;2023-03-21T12:14:37;36.63;;;34.53;;
11431;SDS011;5772;50.940;6.782;2023-03-21T12:17:11;37.37;;;35.03;;
11431;SDS011;5772;50.940;6.782;2023-03-21T12:19:48;34.37;;;32.43;;
11431;SDS011;5772;50.940;6.782;2023-03-21T12:22:20;35.97;;;33.90;;
11431;SDS011;5772;50.940;6.782;2023-03-21T12:24:53;37.70;;;35.47;;
11431;SDS011;5772;50.940;6.782;2023-03-21T12:27:21;40.33;;;38.00;;
11431;SDS011;5772;50.940;6.782;2023-03-21T12:29:54;44.67;;;42.10;;
11431;SDS011;5772;50.940;6.782;2023-03-21T12:32:30;44.97;;;41.67;;
11431;SDS011;5772;50.940;6.782;2023-03-21T12:35:09;42.60;;;40.00;;
11431;SDS011;5772;50.940;6.782;2023-03-21T12:37:45;40.30;;;38.20;;
11431;SDS011;5772;50.940;6.782;2023-03-21T12:40:21;37.63;;;35.27;;
11431;SDS011;5772;50.940;6.782;2023-03-21T12:43:01;36.93;;;34.80;;
11431;SDS011;5772;50.940;6.782;2023-03-21T12:45:39;33.10;;;31.23;;
11431;SDS011;5772;50.940;6.782;2023-03-21T12:48:12;32.70;;;30.80;;
11431;SDS011;5772;50.940;6.782;2023-03-21T12:50:41;37.57;;;35.33;;
11431;SDS011;5772;50.940;6.782;2023-03-21T12:53:13;36.83;;;34.73;;
11431;SDS011;5772;50.940;6.782;2023-03-21T12:55:48;36.73;;;34.50;;
11431;SDS011;5772;50.940;6.782;2023-03-21T12:58:14;34.50;;;32.50;;
11431;SDS011;5772;50.940;6.782;2023-03-21T13:00:43;36.27;;;34.47;;
11431;SDS011;5772;50.940;6.782;2023-03-21T13:03:10;40.17;;;38.07;;
11431;SDS011;5772;50.940;6.782;2023-03-21T13:05:38;42.67;;;40.17;;
11431;SDS011;5772;50.940;6.782;2023-03-21T13:08:06;41.73;;;39.53;;
11431;SDS011;5772;50.940;6.782;2023-03-21T13:10:35;41.50;;;39.00;;
11431;SDS011;5772;50.940;6.782;2023-03-21T13:13:04;39.00;;;37.00;;
11431;SDS011;5772;50.940;6.782;2023-03-21T13:15:41;39.37;;;37.27;;
11431;SDS011;5772;50.940;6.782;2023-03-21T13:18:14;38.80;;;36.50;;
11431;SDS011;5772;50.940;6.782;2023-03-21T13:20:48;38.80;;;36.90;;
11431;SDS011;5772;50.940;6.782;2023-03-21T13:23:14;34.33;;;32.53;;
11431;SDS011;5772;50.940;6.782;2023-03-21T13:25:42;34.73;;;32.93;;
11431;SDS011;5772;50.940;6.782;2023-03-21T13:28:15;35.00;;;33.00;;
11431;SDS011;5772;50.940;6.782;2023-03-21T13:30:43;34.53;;;32.70;;
11431;SDS011;5772;50.940;6.782;2023-03-21T13:33:10;36.60;;;34.10;;
11431;SDS011;5772;50.940;6.782;2023-03-21T13:35:38;34.97;;;33.23;;
11431;SDS011;5772;50.940;6.782;2023-03-21T13:38:05;36.03;;;34.30;;
11431;SDS011;5772;50.940;6.782;2023-03-21T13:40:37;41.63;;;39.37;;
11431;SDS011;5772;50.940;6.782;2023-03-21T13:43:21;37.90;;;35.93;;
11431;SDS011;5772;50.940;6.782;2023-03-21T13:46:04;40.17;;;38.07;;
11431;SDS011;5772;50.940;6.782;2023-03-21T13:48:31;40.30;;;38.07;;
11431;SDS011;5772;50.940;6.782;2023-03-21T13:51:05;40.23;;;38.37;;
11431;SDS011;5772;50.940;6.782;2023-03-21T13:53:32;42.00;;;39.90;;
11431;SDS011;5772;50.940;6.782;2023-03-21T13:56:13;36.80;;;34.63;;
11431;SDS011;5772;50.940;6.782;2023-03-21T13:58:53;41.67;;;39.67;;
11431;SDS011;5772;50.940;6.782;2023-03-21T14:01:32;43.33;;;40.90;;
11431;SDS011;5772;50.940;6.782;2023-03-21T14:04:01;44.57;;;42.17;;
11431;SDS011;5772;50.940;6.782;2023-03-21T14:06:30;41.73;;;39.73;;
11431;SDS011;5772;50.940;6.782;2023-03-21T14:08:59;43.30;;;40.90;;
11431;SDS011;5772;50.940;6.782;2023-03-21T14:11:25;38.63;;;36.70;;
11431;SDS011;5772;50.940;6.782;2023-03-21T14:13:50;35.37;;;33.40;;
11431;SDS011;5772;50.940;6.782;2023-03-21T14:16:18;37.57;;;35.47;;
11431;SDS011;5772;50.940;6.782;2023-03-21T14:18:45;35.10;;;33.40;;
11431;SDS011;5772;50.940;6.782;2023-03-21T14:21:13;38.07;;;36.07;;
11431;SDS011;5772;50.940;6.782;2023-03-21T14:23:40;34.60;;;32.83;;
11431;SDS011;5772;50.940;6.782;2023-03-21T14:26:06;32.57;;;30.93;;
11431;SDS011;5772;50.940;6.782;2023-03-21T14:28:34;32.93;;;31.17;;
11431;SDS011;5772;50.940;6.782;2023-03-21T14:31:01;42.57;;;40.03;;
11431;SDS011;5772;50.940;6.782;2023-03-21T14:33:28;37.37;;;35.27;;
11431;SDS011;5772;50.940;6.782;2023-03-21T14:35:56;41.63;;;39.47;;
11431;SDS011;5772;50.940;6.782;2023-03-21T14:38:23;43.10;;;40.70;;
11431;SDS011;5772;50.940;6.782;2023-03-21T14:40:50;38.33;;;36.37;;
11431;SDS011;5772;50.940;6.782;2023-03-21T14:43:17;32.43;;;30.80;;